Weather observations for the past three days for
Houston, Houston Hobby Airport
| Date | Time (cdt) | Wind (kph) | Vis. (km) | Weather | Sky Cond. | Temperature (ºC) | Relative Humidity | Wind Chill (°C) | Heat Index (°C) | Pressure | Precipitation (cm) | ||||||
|---|---|---|---|---|---|---|---|---|---|---|---|---|---|---|---|---|---|
| Air | Dwpt | 6 hour | altimeter (cm) | sea level (mb) | 1 hr | 3 hr | 6 hr | ||||||||||
| Max. | Min. | ||||||||||||||||
| 04 | 06:53 | E 7 | 16.09 | Mostly Cloudy | FEW020 SCT150 BKN200 | 27.2 | 25.6 | 27.8 | 26.7 | 91% | 31 | 75.97 | 1013.4 | ||||
| 04 | 05:53 | E 9 | 14.48 | Mostly Cloudy | FEW020 BKN120 | 27.2 | 25.6 | 91% | 31 | 75.97 | 1013.4 | ||||||
| 04 | 04:53 | Calm | 16.09 | Overcast | FEW020 BKN120 OVC300 | 27.2 | 25.6 | 91% | 31 | 75.95 | 1013.0 | ||||||
| 04 | 03:53 | Calm | 16.09 | Overcast | FEW020 SCT110 OVC300 | 27.2 | 25 | 88% | 31 | 75.92 | 1012.8 | ||||||
| 04 | 02:53 | SW 7 | 16.09 | Overcast | FEW020 BKN140 OVC300 | 27.2 | 25 | 88% | 31 | 75.95 | 1012.8 | ||||||
| 04 | 01:53 | S 7 | 16.09 | Overcast | FEW020 BKN130 OVC300 | 27.2 | 25.6 | 91% | 31 | 75.97 | 1013.1 | ||||||
| 04 | 00:53 | S 13 | 14.48 | Overcast | FEW020 SCT085 BKN110 OVC300 | 27.2 | 25.6 | 28.3 | 27.2 | 91% | 31 | 75.97 | 1013.1 | ||||
| 03 | 23:53 | S 13 | 16.09 | Overcast | FEW020 BKN200 OVC270 | 27.8 | 25.6 | 88% | 33 | 75.97 | 1013.1 | ||||||
| 03 | 22:53 | SE 7 | 16.09 | Mostly Cloudy | FEW020 BKN200 BKN250 | 27.8 | 25.6 | 88% | 33 | 75.97 | 1013.2 | ||||||
| 03 | 21:53 | SE 11 | 16.09 | Mostly Cloudy | BKN190 BKN250 | 27.8 | 25.6 | 88% | 33 | 75.97 | 1013.3 | ||||||
| 03 | 20:53 | SE 7 | 16.09 | Mostly Cloudy | FEW040 BKN190 BKN250 | 27.8 | 25 | 85% | 32 | 75.95 | 1012.9 | ||||||
| 03 | 19:53 | SE 11 | 16.09 | Mostly Cloudy | FEW020 BKN180 BKN250 | 28.3 | 25.6 | 85% | 34 | 75.9 | 1012.3 | ||||||
| 03 | 18:53 | Calm | 16.09 | Mostly Cloudy | FEW012 FEW040 SCT160 BKN200 BKN250 | 27.8 | 26.1 | 33.9 | 23.9 | 90% | 33 | 75.92 | 1012.7 | 6.12 | |||
| 03 | 17:53 | E 7 | 16.09 | Mostly Cloudy | FEW016 BKN150 BKN250 | 26.7 | 25 | 90% | 30 | 75.9 | 1012.3 | ||||||
| 03 | 16:53 | Calm | 12.87 | Light Rain | SCT015 SCT035 BKN130 BKN250 | 25.6 | 23.3 | 87% | 27 | 75.95 | 1013.0 | 2.16 | |||||
| 03 | 15:53 | N 19 G 43 | 0.80 | Thunderstorm Heavy Rain | SCT008 BKN022CB BKN035 OVC250 | 23.9 | 21.7 | 88% | 24 | 76.07 | 1014.5 | 3.96 | 3.96 | ||||
| 03 | 13:53 | E 9 | 16.09 | Mostly Cloudy | SCT040 SCT120 BKN250 | 33.3 | 23.3 | 56% | 39 | 76 | 1013.4 | ||||||
| 03 | 12:53 | E 9 | 16.09 | Mostly Cloudy | SCT030 SCT200 BKN250 | 32.2 | 24.4 | 32.2 | 27.2 | 63% | 39 | 76.05 | 1014.3 | ||||
| 03 | 11:53 | Vrbl 6 | 16.09 | Mostly Cloudy | FEW025 SCT200 BKN250 | 31.1 | 25 | 70% | 38 | 76.1 | 1014.8 | ||||||
| 03 | 10:53 | E 11 | 16.09 | Mostly Cloudy | BKN160 BKN250 | 28.9 | 25 | 80% | 34 | 76.07 | 1014.6 | ||||||
| 03 | 09:53 | Calm | 16.09 | Mostly Cloudy | FEW060 SCT080 BKN120 | 28.3 | 25.6 | 85% | 34 | 76.07 | 1014.6 | ||||||
| 03 | 08:53 | SE 7 | 16.09 | Overcast | SCT012 BKN160 OVC250 | 27.8 | 25.6 | 88% | 33 | 76.1 | 1014.9 | ||||||
| 03 | 07:53 | S 7 | 16.09 | Overcast | FEW035 BKN120 OVC150 | 27.2 | 26.1 | 94% | 32 | 76.07 | 1014.4 | ||||||
| 03 | 06:53 | S 7 | 16.09 | Light Rain | SCT030 BKN045 OVC120 | 27.2 | 26.1 | 28.9 | 27.2 | 94% | 32 | 76.02 | 1013.9 | 0.03 | 0.03 | ||
| 03 | 05:53 | S 9 | 14.48 | Light Rain | SCT025 BKN035 OVC100 | 27.8 | 25.6 | 88% | 33 | 76.02 | 1013.7 | ||||||
| 03 | 04:53 | S 9 | 16.09 | Mostly Cloudy | SCT075 BKN110 | 28.3 | 25.6 | 85% | 34 | 75.97 | 1013.3 | ||||||
| 03 | 03:53 | S 11 | 16.09 | Mostly Cloudy | BKN120 | 28.3 | 25 | 82% | 33 | 76 | 1013.5 | ||||||
| 03 | 02:53 | S 11 | 16.09 | Mostly Cloudy | BKN180 | 28.3 | 25.6 | 85% | 34 | 75.97 | 1013.3 | ||||||
| 03 | 01:53 | S 6 | 16.09 | Mostly Cloudy | SCT020 BKN100 | 28.3 | 25 | 82% | 33 | 76.02 | 1013.8 | ||||||
| 03 | 00:53 | S 9 | 16.09 | Mostly Cloudy | SCT025 BKN160 | 28.3 | 25 | 31.7 | 28.3 | 82% | 33 | 76.07 | 1014.4 | ||||
| 02 | 23:53 | SE 13 | 16.09 | Mostly Cloudy | FEW030 SCT160 BKN250 | 28.9 | 25 | 80% | 34 | 76.05 | 1014.3 | ||||||
| 02 | 22:53 | SE 13 | 16.09 | A Few Clouds | FEW024 | 28.9 | 25.6 | 82% | 35 | 76.07 | 1014.5 | ||||||
| 02 | 21:53 | SE 13 | 16.09 | Mostly Cloudy | FEW020 FEW045 BKN250 | 29.4 | 25.6 | 80% | 36 | 76.05 | 1014.1 | ||||||
| 02 | 20:53 | SE 19 | 16.09 | Mostly Cloudy | FEW040 FEW160 BKN250 | 29.4 | 26.1 | 82% | 36 | 75.97 | 1013.1 | ||||||
| 02 | 19:53 | S 22 | 16.09 | Mostly Cloudy | FEW040 FEW180 BKN250 | 30.6 | 25 | 72% | 37 | 75.92 | 1012.6 | ||||||
| 02 | 18:53 | S 24 | 16.09 | Mostly Cloudy | FEW050 FEW160 BKN250 | 31.7 | 22.8 | 35.6 | 31.7 | 59% | 36 | 75.87 | 1012.0 | ||||
| 02 | 17:53 | S 28 | 16.09 | Mostly Cloudy | FEW045 SCT160 BKN250 | 33.3 | 22.8 | 54% | 38 | 75.87 | 1011.9 | ||||||
| 02 | 16:53 | S 22 | 16.09 | Mostly Cloudy | FEW050 SCT170 BKN250 | 35 | 22.8 | 49% | 40 | 75.87 | 1011.9 | ||||||
| 02 | 15:53 | SW 17 | 16.09 | Mostly Cloudy | SCT050 BKN250 | 34.4 | 23.3 | 52% | 40 | 75.92 | 1012.3 | ||||||
| 02 | 14:53 | SW 15 G 31 | 16.09 | Mostly Cloudy | SCT040 BKN250 | 33.9 | 22.8 | 52% | 39 | 75.97 | 1013.1 | ||||||
| 02 | 13:53 | SW 11 | 16.09 | Mostly Cloudy | SCT040 BKN250 | 33.9 | 23.3 | 54% | 40 | 76 | 1013.6 | ||||||
| 02 | 12:53 | W 17 | 16.09 | Mostly Cloudy | SCT035 BKN250 | 33.9 | 23.9 | 33.9 | 26.7 | 56% | 40 | 76.1 | 1014.7 | ||||
| 02 | 11:53 | SW 20 G 39 | 16.09 | Overcast | SCT030 BKN180 OVC250 | 32.8 | 24.4 | 61% | 39 | 76.15 | 1015.5 | ||||||
| 02 | 10:53 | W 17 G 33 | 16.09 | Overcast | SCT020 BKN170 OVC250 | 30 | 25 | 75% | 36 | 76.17 | 1015.8 | ||||||
| 02 | 09:53 | SW 13 | 16.09 | Overcast | SCT015 BKN170 OVC250 | 28.9 | 25.6 | 82% | 35 | 76.15 | 1015.4 | ||||||
| 02 | 08:53 | SW 7 | 16.09 | Overcast | FEW020 BKN160 OVC250 | 27.8 | 25.6 | 88% | 33 | 76.12 | 1015.4 | ||||||
| 02 | 07:53 | SW 11 | 16.09 | Overcast | FEW075 BKN160 OVC250 | 26.7 | 25.6 | 94% | 30 | 76.1 | 1015.0 | ||||||
| 02 | 06:53 | SW 13 | 12.87 | Mostly Cloudy | FEW025 FEW050 SCT150 BKN250 | 26.7 | 25 | 27.8 | 26.7 | 90% | 30 | 76.02 | 1014.1 | ||||
| 02 | 05:53 | SW 11 | 12.87 | Mostly Cloudy | FEW023 FEW050 SCT110 BKN150 | 26.7 | 25 | 90% | 30 | 76.02 | 1014.0 | ||||||
| 02 | 04:53 | SW 15 | 12.87 | Mostly Cloudy | SCT020 BKN043 BKN110 | 26.7 | 25 | 90% | 30 | 76 | 1013.7 | ||||||
| 02 | 03:53 | SW 17 | 14.48 | Partly Cloudy | FEW023 SCT070 SCT200 | 26.7 | 25 | 90% | 30 | 76 | 1013.6 | ||||||
| 02 | 02:53 | SW 15 | 14.48 | Mostly Cloudy | SCT020 SCT050 BKN160 BKN220 | 26.7 | 25 | 90% | 30 | 76.02 | 1013.8 | ||||||
| 02 | 01:53 | SW 17 | 14.48 | Mostly Cloudy | FEW023 SCT100 BKN160 BKN220 | 27.2 | 25 | 88% | 31 | 76.02 | 1013.7 | ||||||
| 02 | 00:53 | SW 19 | 12.87 | Mostly Cloudy | FEW028 SCT048 SCT120 BKN180 | 27.8 | 24.4 | 28.3 | 26.7 | 82% | 32 | 76 | 1013.6 | ||||
| 01 | 23:53 | SW 7 | 16.09 | Mostly Cloudy | SCT035 SCT180 BKN250 | 26.7 | 22.8 | 79% | 29 | 76.02 | 1013.9 | ||||||
| 01 | 22:53 | W 7 | 16.09 | Mostly Cloudy | FEW040 FEW130 BKN250 | 27.2 | 22.8 | 77% | 30 | 76.02 | 1013.8 | ||||||
| 01 | 21:53 | W 6 | 16.09 | Mostly Cloudy | SCT130 BKN250 | 27.2 | 23.3 | 79% | 30 | 76 | 1013.5 | ||||||
| 01 | 20:53 | W 7 | 16.09 | Mostly Cloudy | FEW045 BKN120 BKN180 BKN250 | 27.8 | 23.3 | 77% | 31 | 75.95 | 1013.0 | ||||||
| 01 | 19:53 | W 6 | 16.09 | Mostly Cloudy | FEW045 SCT120 BKN180 BKN250 | 27.2 | 23.3 | 79% | 30 | 75.9 | 1012.4 | ||||||
| 01 | 18:53 | N 11 | 16.09 | Mostly Cloudy | FEW045 SCT100 BKN130 BKN250 | 27.8 | 23.3 | 30.6 | 27.8 | 77% | 31 | 75.92 | 1012.7 | 0.03 | |||
| 01 | 17:53 | N 15 | 16.09 | Light Rain | FEW040 SCT090 BKN150 OVC250 | 28.3 | 23.9 | 77% | 32 | 75.97 | 1013.2 | ||||||
| 01 | 16:53 | NW 9 | 16.09 | Light Rain | FEW032 SCT085 BKN170 OVC250 | 30 | 23.9 | 70% | 35 | 75.95 | 1013.0 | ||||||
| 01 | 15:53 | W 7 | 16.09 | Light Rain | FEW040 SCT085 OVC140 | 28.9 | 24.4 | 77% | 34 | 76 | 1013.4 | 0.03 | |||||
| 01 | 14:53 | NW 9 | 16.09 | Overcast | FEW040 OVC120 | 28.9 | 23.9 | 74% | 33 | 76.05 | 1014.2 | ||||||
| 01 | 13:53 | N 7 | 16.09 | Light Rain | FEW045 BKN080 OVC110 | 28.9 | 22.8 | 70% | 32 | 76.07 | 1014.7 | 0.03 | |||||
| 01 | 12:53 | NE 9 | 16.09 | Light Rain | FEW070 BKN090 OVC120 | 28.9 | 22.8 | 30.6 | 26.7 | 70% | 32 | 76.12 | 1015.1 | ||||
| 01 | 11:53 | NE 15 | 16.09 | Overcast | SCT035 OVC140 | 30 | 21.7 | 61% | 33 | 76.2 | 1016.1 | ||||||
| 01 | 10:53 | N 15 | 16.09 | Overcast | FEW030 OVC180 | 30.6 | 22.8 | 63% | 35 | 76.17 | 1015.9 | ||||||
| 01 | 09:53 | N 11 | 16.09 | Mostly Cloudy | SCT170 BKN220 | 28.9 | 23.9 | 74% | 33 | 76.15 | 1015.7 | ||||||
| 01 | 08:53 | N 9 | 16.09 | Mostly Cloudy | SCT170 BKN220 | 27.8 | 24.4 | 82% | 32 | 76.17 | 1016.0 | ||||||
| Date | Time (cdt) | Wind (kph) | Vis. (km) | Weather | Sky Cond. | Air | Dwpt | Max. | Min. | Relative Humidity | Wind Chill (°C) | Heat Index (°C) | altimeter (cm) | sea level (mb) | 1 hr | 3 hr | 6 hr |
| 6 hour | |||||||||||||||||
| Temperature (ºC) | Pressure | Precipitation (cm) | |||||||||||||||